Time;durP1;ratioP1;P1;durP2;ratioP2;P2;SDS_P1;SDS_P2;PMS_P1;PMS_P2;Temp;Humidity;BMP_temperature;BMP_pressure;BME280_temperature;BME280_humidity;BME280_pressure;Samples;Min_cycle;Max_cycle;Signal;HPM_P1;HPM_P2
2022/11/18 00:01:03;;;;;;;;;;;;;;;;;;5022085;28;4875;-56
2022/11/18 00:03:28;;;;;;;;;;;;;;;;;;5023744;28;4926;-56
2022/11/18 00:05:54;;;;;;;;;;;;;;;;;;5014804;28;4985;-56
2022/11/18 00:08:20;;;;;;;;;;;;;;;;;;5028220;28;6461;-55
2022/11/18 00:10:45;;;;;;;;;;;;;;;;;;5035239;28;1916;-56
2022/11/18 00:16:10;;;;;;;;;;;;;;;;;;5027053;28;4569;-55
2022/11/18 00:18:35;;;;;;;;;;;;;;;;;;5020605;28;4987;-55
2022/11/18 00:21:01;;;;;;;;;;;;;;;;;;5009448;28;4925;-56
2022/11/18 00:23:27;;;;;;;;;;;;;;;;;;5020316;28;4504;-53
2022/11/18 00:25:52;;;;;;;;;;;;;;;;;;5017749;28;1832;-55
2022/11/18 00:28:17;;;;;;;;;;;;;;;;;;5027938;28;5010;-56
2022/11/18 00:30:43;;;;;;;;;;;;;;;;;;5028760;28;5101;-55
2022/11/18 00:33:08;;;;;;;;;;;;;;;;;;5018268;28;5118;-55
2022/11/18 00:35:33;;;;;;;;;;;;;;;;;;5017915;28;5027;-56
2022/11/18 00:37:58;;;;;;;;;;;;;;;;;;5026910;28;5063;-57
2022/11/18 00:40:24;;;;;;;;;;;;;;;;;;5029108;28;897;-56
2022/11/18 00:42:50;;;;;;;;;;;;;;;;;;5028357;28;4532;-56
2022/11/18 00:45:15;;;;;;;;;;;;;;;;;;5027524;28;5229;-54
2022/11/18 00:47:40;;;;;;;;;;;;;;;;;;5011010;28;4913;-56
2022/11/18 00:50:06;;;;;;;;;;;;;;;;;;5009212;28;4510;-56
2022/11/18 00:52:31;;;;;;;;;;;;;;;;;;5009689;28;1348;-57
2022/11/18 00:54:56;;;;;;;;;;;;;;;;;;5027825;28;4834;-55
2022/11/18 00:57:21;;;;;;;;;;;;;;;;;;5015192;28;4699;-55
2022/11/18 00:59:46;;;;;;;;;;;;;;;;;;5008539;28;4472;-56
2022/11/18 01:02:12;;;;;;;;;;;;;;;;;;5024792;28;5294;-57
2022/11/18 01:04:37;;;;;;;;;;;;;;;;;;5031197;28;4627;-56
2022/11/18 01:07:02;;;;;;;;;;;;;;;;;;5009322;28;4990;-56
2022/11/18 01:09:28;;;;;;;;;;;;;;;;;;5008744;28;4941;-55
2022/11/18 01:14:37;;;;;;;;;;;;;;;;;;5015290;28;5550;-58
2022/11/18 01:17:02;;;;;;;;;;;;;;;;;;5028059;28;5098;-58
2022/11/18 01:19:27;;;;;;;;;;;;;;;;;;5014633;28;1908;-58
2022/11/18 01:21:53;;;;;;;;;;;;;;;;;;5017267;28;5166;-58
2022/11/18 01:24:18;;;;;;;;;;;;;;;;;;5029958;28;4524;-57
2022/11/18 01:26:43;;;;;;;;;;;;;;;;;;5031230;28;5590;-58
2022/11/18 01:29:08;;;;;;;;;;;;;;;;;;5022200;28;4554;-58
2022/11/18 01:31:34;;;;;;;;;;;;;;;;;;5028142;28;1175;-56
2022/11/18 01:33:59;;;;;;;;;;;;;;;;;;5027094;28;4915;-57
2022/11/18 01:36:26;;;;;;;;;;;;;;;;;;5032180;28;5115;-57
2022/11/18 01:38:51;;;;;;;;;;;;;;;;;;5029315;28;5059;-56
2022/11/18 01:41:17;;;;;;;;;;;;;;;;;;5011832;28;5115;-56
2022/11/18 01:43:52;;;;;;;;;;;;;;;;;;5027612;28;2039;-56
2022/11/18 01:46:18;;;;;;;;;;;;;;;;;;5027251;28;4510;-56
2022/11/18 01:48:43;;;;;;;;;;;;;;;;;;5012591;28;4457;-56
2022/11/18 01:51:11;;;;;;;;;;;;;;;;;;5012442;28;5105;-56
2022/11/18 01:53:41;;;;;;;;;;;;;;;;;;5019844;28;5224;-56
2022/11/18 01:56:33;;;;;;;;;;;;;;;;;;5028891;28;5043;-56
2022/11/18 01:59:00;;;;;;;;;;;;;;;;;;5027728;28;4839;-56
2022/11/18 02:01:25;;;;;;;;;;;;;;;;;;5030035;28;1721;-56
2022/11/18 02:03:51;;;;;;;;;;;;;;;;;;5031545;28;4961;-57
2022/11/18 02:06:16;;;;;;;;;;;;;;;;;;5042963;28;4655;-57
2022/11/18 02:08:41;;;;;;;;;;;;;;;;;;5031632;28;4867;-56
2022/11/18 02:11:49;;;;;;;;;;;;;;;;;;5029169;28;5024;-56
2022/11/18 02:13:58;;;;;;;;;;;;;;;;;;5041497;28;4537;-57
2022/11/18 02:16:26;;;;;;;;;;;;;;;;;;5029644;28;1904;-57
2022/11/18 02:18:53;;;;;;;;;;;;;;;;;;5036121;28;5084;-57
2022/11/18 02:21:27;;;;;;;;;;;;;;;;;;5035325;28;4390;-56
2022/11/18 02:24:05;;;;;;;;;;;;;;;;;;5029130;28;4726;-57
2022/11/18 02:26:43;;;;;;;;;;;;;;;;;;5031704;28;4430;-57
2022/11/18 02:29:08;;;;;;;;;;;;;;;;;;5031200;28;4537;-57
2022/11/18 02:31:39;;;;;;;;;;;;;;;;;;5025934;28;1864;-57
2022/11/18 02:34:08;;;;;;;;;;;;;;;;;;5030519;28;4976;-56
2022/11/18 02:36:41;;;;;;;;;;;;;;;;;;5011419;28;5028;-57
2022/11/18 02:39:08;;;;;;;;;;;;;;;;;;5026014;28;4443;-57
2022/11/18 02:41:33;;;;;;;;;;;;;;;;;;5011171;28;5006;-56
2022/11/18 02:43:58;;;;;;;;;;;;;;;;;;5025890;28;5329;-57
2022/11/18 02:46:33;;;;;;;;;;;;;;;;;;5029996;28;875;-57
2022/11/18 02:48:59;;;;;;;;;;;;;;;;;;5026221;28;4957;-57
2022/11/18 02:51:25;;;;;;;;;;;;;;;;;;5029488;28;4407;-57
2022/11/18 02:53:51;;;;;;;;;;;;;;;;;;5032076;28;5164;-58
2022/11/18 02:56:16;;;;;;;;;;;;;;;;;;5011332;28;4899;-58
2022/11/18 02:58:41;;;;;;;;;;;;;;;;;;5007686;28;1961;-57
2022/11/18 03:01:13;;;;;;;;;;;;;;;;;;5010557;28;4799;-56
2022/11/18 03:03:38;;;;;;;;;;;;;;;;;;5025528;28;5316;-56
2022/11/18 03:06:10;;;;;;;;;;;;;;;;;;5010847;28;5430;-57
2022/11/18 03:08:39;;;;;;;;;;;;;;;;;;5012348;28;5203;-56
2022/11/18 03:11:10;;;;;;;;;;;;;;;;;;5045616;28;4527;-55
2022/11/18 03:13:40;;;;;;;;;;;;;;;;;;5043027;28;1698;-57
2022/11/18 03:16:06;;;;;;;;;;;;;;;;;;5045406;28;5801;-55
2022/11/18 03:18:50;;;;;;;;;;;;;;;;;;5038909;28;5041;-56
2022/11/18 03:21:16;;;;;;;;;;;;;;;;;;5030290;28;4829;-57
2022/11/18 03:23:47;;;;;;;;;;;;;;;;;;5043666;28;5068;-56
2022/11/18 03:26:23;;;;;;;;;;;;;;;;;;5019234;28;5077;-56
2022/11/18 03:28:49;;;;;;;;;;;;;;;;;;5045086;28;1881;-55
2022/11/18 03:31:38;;;;;;;;;;;;;;;;;;5045153;28;4465;-56
2022/11/18 03:34:09;;;;;;;;;;;;;;;;;;5022488;28;5055;-56
2022/11/18 03:36:36;;;;;;;;;;;;;;;;;;5014913;28;5087;-56
2022/11/18 03:39:02;;;;;;;;;;;;;;;;;;5025295;28;4589;-57
2022/11/18 03:41:28;;;;;;;;;;;;;;;;;;5009695;28;5056;-56
2022/11/18 03:43:56;;;;;;;;;;;;;;;;;;5029018;28;1516;-57
2022/11/18 03:46:22;;;;;;;;;;;;;;;;;;5011070;28;4545;-56
2022/11/18 03:48:49;;;;;;;;;;;;;;;;;;5024101;28;4441;-57
2022/11/18 03:51:16;;;;;;;;;;;;;;;;;;5029325;28;5464;-56
2022/11/18 03:53:42;;;;;;;;;;;;;;;;;;5028754;28;5122;-57
2022/11/18 03:56:15;;;;;;;;;;;;;;;;;;5027534;28;5045;-56
2022/11/18 03:58:42;;;;;;;;;;;;;;;;;;5032389;28;2009;-56
2022/11/18 04:01:10;;;;;;;;;;;;;;;;;;5044560;28;4937;-56
2022/11/18 04:03:35;;;;;;;;;;;;;;;;;;5015385;28;4868;-56
2022/11/18 04:06:08;;;;;;;;;;;;;;;;;;5027310;28;5028;-56
2022/11/18 04:08:35;;;;;;;;;;;;;;;;;;5029369;28;5198;-56
2022/11/18 04:11:00;;;;;;;;;;;;;;;;;;5024147;28;5083;-57
2022/11/18 04:13:29;;;;;;;;;;;;;;;;;;5000554;28;1286;-57
2022/11/18 04:15:54;;;;;;;;;;;;;;;;;;5008038;28;4958;-57
2022/11/18 04:18:20;;;;;;;;;;;;;;;;;;5014591;28;4999;-57
2022/11/18 04:20:45;;;;;;;;;;;;;;;;;;4989615;28;5108;-56
2022/11/18 04:23:10;;;;;;;;;;;;;;;;;;5003979;28;4768;-57
2022/11/18 04:25:35;;;;;;;;;;;;;;;;;;5005995;28;1865;-57
2022/11/18 04:28:01;;;;;;;;;;;;;;;;;;4992344;28;4402;-57
2022/11/18 04:30:26;;;;;;;;;;;;;;;;;;4999467;28;5103;-55
2022/11/18 04:32:51;;;;;;;;;;;;;;;;;;5008453;28;4997;-56
2022/11/18 04:35:16;;;;;;;;;;;;;;;;;;4993721;28;5270;-59
2022/11/18 04:37:42;;;;;;;;;;;;;;;;;;4990772;28;1918;-55
2022/11/18 04:40:07;;;;;;;;;;;;;;;;;;4989679;28;4486;-56
2022/11/18 04:42:32;;;;;;;;;;;;;;;;;;4991875;28;4459;-57
2022/11/18 04:44:58;;;;;;;;;;;;;;;;;;5008228;28;5102;-56
2022/11/18 04:47:23;;;;;;;;;;;;;;;;;;5009471;28;4936;-56
2022/11/18 04:49:48;;;;;;;;;;;;;;;;;;4993727;28;1870;-56
2022/11/18 04:52:13;;;;;;;;;;;;;;;;;;4989406;28;5029;-56
2022/11/18 04:54:39;;;;;;;;;;;;;;;;;;5012163;28;5088;-57
2022/11/18 04:57:04;;;;;;;;;;;;;;;;;;5010117;28;5196;-57
2022/11/18 04:59:29;;;;;;;;;;;;;;;;;;5000001;28;5136;-57
2022/11/18 05:01:55;;;;;;;;;;;;;;;;;;4996660;28;1866;-59
2022/11/18 05:04:21;;;;;;;;;;;;;;;;;;5006932;28;4864;-58
2022/11/18 05:06:46;;;;;;;;;;;;;;;;;;4992162;28;4933;-58
2022/11/18 05:09:12;;;;;;;;;;;;;;;;;;4993682;28;5061;-58
2022/11/18 05:14:21;;;;;;;;;;;;;;;;;;5009236;28;5048;-58
2022/11/18 05:16:46;;;;;;;;;;;;;;;;;;5028140;28;1926;-56
2022/11/18 05:19:11;;;;;;;;;;;;;;;;;;5001100;28;4688;-57
2022/11/18 05:21:37;;;;;;;;;;;;;;;;;;5011153;28;5138;-56
2022/11/18 05:24:02;;;;;;;;;;;;;;;;;;5010312;28;5642;-56
2022/11/18 05:26:27;;;;;;;;;;;;;;;;;;5008976;28;5022;-56
2022/11/18 05:28:53;;;;;;;;;;;;;;;;;;4993440;28;946;-56
2022/11/18 05:31:18;;;;;;;;;;;;;;;;;;4993740;28;4573;-56
2022/11/18 05:33:43;;;;;;;;;;;;;;;;;;5002791;28;4564;-56
2022/11/18 05:36:12;;;;;;;;;;;;;;;;;;5009265;28;5155;-57
2022/11/18 05:38:38;;;;;;;;;;;;;;;;;;5010562;28;5071;-56
2022/11/18 05:41:03;;;;;;;;;;;;;;;;;;5006812;28;4586;-56
2022/11/18 05:43:28;;;;;;;;;;;;;;;;;;5000745;28;1583;-56
2022/11/18 05:45:54;;;;;;;;;;;;;;;;;;5027019;28;4860;-57
2022/11/18 05:48:19;;;;;;;;;;;;;;;;;;5026906;28;5097;-57
2022/11/18 05:50:45;;;;;;;;;;;;;;;;;;5030426;28;5060;-57
2022/11/18 05:53:10;;;;;;;;;;;;;;;;;;5030035;28;5034;-58
2022/11/18 05:55:38;;;;;;;;;;;;;;;;;;5019063;28;1965;-58
2022/11/18 05:58:03;;;;;;;;;;;;;;;;;;5024326;28;4610;-58
2022/11/18 06:00:29;;;;;;;;;;;;;;;;;;5027659;28;4997;-58
2022/11/18 06:02:54;;;;;;;;;;;;;;;;;;5016879;28;4543;-57
2022/11/18 06:05:19;;;;;;;;;;;;;;;;;;5029251;28;5453;-57
2022/11/18 06:07:44;;;;;;;;;;;;;;;;;;5046727;28;1358;-57
2022/11/18 06:10:16;;;;;;;;;;;;;;;;;;5030920;28;5156;-57
2022/11/18 06:12:41;;;;;;;;;;;;;;;;;;5043875;28;5340;-58
2022/11/18 06:15:16;;;;;;;;;;;;;;;;;;5029608;28;5175;-57
2022/11/18 06:18:04;;;;;;;;;;;;;;;;;;4997540;28;5149;-57
2022/11/18 06:20:30;;;;;;;;;;;;;;;;;;5014008;28;5330;-57
2022/11/18 06:22:55;;;;;;;;;;;;;;;;;;5051339;28;2138;-57
2022/11/18 06:25:21;;;;;;;;;;;;;;;;;;5029827;28;5463;-56
2022/11/18 06:27:46;;;;;;;;;;;;;;;;;;5030698;28;5013;-56
2022/11/18 06:30:12;;;;;;;;;;;;;;;;;;5026737;28;5080;-56
2022/11/18 06:32:37;;;;;;;;;;;;;;;;;;5012504;28;5114;-56
2022/11/18 06:35:02;;;;;;;;;;;;;;;;;;5030348;28;4534;-56
2022/11/18 06:37:28;;;;;;;;;;;;;;;;;;5013711;28;1963;-59
2022/11/18 06:39:53;;;;;;;;;;;;;;;;;;5014885;28;4986;-57
2022/11/18 06:45:03;;;;;;;;;;;;;;;;;;5010960;28;5105;-59
2022/11/18 06:47:28;;;;;;;;;;;;;;;;;;5015908;28;5131;-57
2022/11/18 06:49:53;;;;;;;;;;;;;;;;;;5025070;28;2451;-57
2022/11/18 06:52:18;;;;;;;;;;;;;;;;;;5013702;28;4545;-58
2022/11/18 06:54:44;;;;;;;;;;;;;;;;;;5021419;28;4524;-58
2022/11/18 06:57:09;;;;;;;;;;;;;;;;;;5007088;28;5300;-58
2022/11/18 06:59:35;;;;;;;;;;;;;;;;;;5008571;28;5142;-58
2022/11/18 07:02:00;;;;;;;;;;;;;;;;;;5026348;28;5291;-61
2022/11/18 07:04:25;;;;;;;;;;;;;;;;;;5024644;28;4592;-59
2022/11/18 07:06:50;;;;;;;;;;;;;;;;;;5025920;28;4979;-60
2022/11/18 07:09:16;;;;;;;;;;;;;;;;;;5025845;28;4614;-59
2022/11/18 07:11:41;;;;;;;;;;;;;;;;;;5017731;28;4429;-56
2022/11/18 07:14:07;;;;;;;;;;;;;;;;;;5022825;28;5059;-57
2022/11/18 07:16:32;;;;;;;;;;;;;;;;;;5027664;28;2058;-55
2022/11/18 07:18:57;;;;;;;;;;;;;;;;;;5025066;28;5116;-55
2022/11/18 07:21:26;;;;;;;;;;;;;;;;;;5028077;28;4875;-54
2022/11/18 07:23:51;;;;;;;;;;;;;;;;;;5010799;28;4884;-55
2022/11/18 07:26:17;;;;;;;;;;;;;;;;;;5024881;28;5730;-57
2022/11/18 07:28:42;;;;;;;;;;;;;;;;;;5011989;28;1832;-57
2022/11/18 07:31:08;;;;;;;;;;;;;;;;;;5018399;28;4815;-58
2022/11/18 07:33:33;;;;;;;;;;;;;;;;;;5020352;28;4920;-58
2022/11/18 07:35:59;;;;;;;;;;;;;;;;;;5016444;28;4922;-57
2022/11/18 07:38:25;;;;;;;;;;;;;;;;;;5020274;28;5052;-56
2022/11/18 07:40:50;;;;;;;;;;;;;;;;;;5014385;28;1981;-58
2022/11/18 07:43:15;;;;;;;;;;;;;;;;;;5029866;28;5785;-58
2022/11/18 07:45:40;;;;;;;;;;;;;;;;;;5028208;28;5083;-55
2022/11/18 07:48:05;;;;;;;;;;;;;;;;;;5026704;28;5112;-57
2022/11/18 07:50:31;;;;;;;;;;;;;;;;;;5014851;28;5365;-58
2022/11/18 07:52:56;;;;;;;;;;;;;;;;;;5029920;28;5011;-57
2022/11/18 07:55:21;;;;;;;;;;;;;;;;;;5021790;28;1879;-58
2022/11/18 07:57:47;;;;;;;;;;;;;;;;;;5018826;28;4882;-58
2022/11/18 08:00:12;;;;;;;;;;;;;;;;;;5024318;28;5260;-57
2022/11/18 08:02:37;;;;;;;;;;;;;;;;;;5012477;28;5433;-56
2022/11/18 08:05:03;;;;;;;;;;;;;;;;;;5014386;28;5207;-54
2022/11/18 08:07:28;;;;;;;;;;;;;;;;;;5018591;28;1888;-57
2022/11/18 08:09:53;;;;;;;;;;;;;;;;;;5022783;28;5068;-57
2022/11/18 08:12:19;;;;;;;;;;;;;;;;;;5024962;28;4627;-56
2022/11/18 08:14:44;;;;;;;;;;;;;;;;;;5023009;28;4478;-56
2022/11/18 08:17:09;;;;;;;;;;;;;;;;;;5015174;28;5189;-56
2022/11/18 08:19:34;;;;;;;;;;;;;;;;;;5019910;28;1882;-57
2022/11/18 08:22:00;;;;;;;;;;;;;;;;;;5016149;28;4713;-57
2022/11/18 08:24:25;;;;;;;;;;;;;;;;;;5024157;28;5572;-56
2022/11/18 08:26:50;;;;;;;;;;;;;;;;;;5013791;28;5038;-54
2022/11/18 08:29:15;;;;;;;;;;;;;;;;;;5016549;28;4879;-56
2022/11/18 08:31:41;;;;;;;;;;;;;;;;;;5020692;28;1952;-55
2022/11/18 08:34:06;;;;;;;;;;;;;;;;;;5022630;28;5073;-55
2022/11/18 08:36:32;;;;;;;;;;;;;;;;;;5022968;28;4720;-54
2022/11/18 08:38:58;;;;;;;;;;;;;;;;;;5017304;28;5346;-56
2022/11/18 08:41:33;;;;;;;;;;;;;;;;;;5019879;28;4694;-56
2022/11/18 08:43:59;;;;;;;;;;;;;;;;;;5015256;28;4924;-57
2022/11/18 08:46:24;;;;;;;;;;;;;;;;;;5016576;28;1721;-56
2022/11/18 08:48:49;;;;;;;;;;;;;;;;;;5020597;28;5213;-56
2022/11/18 08:51:15;;;;;;;;;;;;;;;;;;5017809;28;5043;-57
2022/11/18 08:53:41;;;;;;;;;;;;;;;;;;5020551;28;5151;-57
2022/11/18 08:56:06;;;;;;;;;;;;;;;;;;5013450;28;4591;-57
2022/11/18 08:58:31;;;;;;;;;;;;;;;;;;5012777;28;1914;-58
2022/11/18 09:00:57;;;;;;;;;;;;;;;;;;5017207;28;4718;-59
2022/11/18 09:03:22;;;;;;;;;;;;;;;;;;5020391;28;5484;-58
2022/11/18 09:05:47;;;;;;;;;;;;;;;;;;5015091;28;5189;-56
2022/11/18 09:08:14;;;;;;;;;;;;;;;;;;5018636;28;5146;-56
2022/11/18 09:10:39;;;;;;;;;;;;;;;;;;5020596;28;1674;-56
2022/11/18 09:13:04;;;;;;;;;;;;;;;;;;5024842;28;4939;-61
2022/11/18 09:15:29;;;;;;;;;;;;;;;;;;5022671;28;4637;-61
2022/11/18 09:17:58;;;;;;;;;;;;;;;;;;5022520;28;5250;-67
2022/11/18 09:20:23;;;;;;;;;;;;;;;;;;5016634;28;5126;-65
2022/11/18 09:22:48;;;;;;;;;;;;;;;;;;5021841;28;1419;-62
2022/11/18 09:25:13;;;;;;;;;;;;;;;;;;5022706;28;5078;-63
2022/11/18 09:27:39;;;;;;;;;;;;;;;;;;5031683;28;5184;-65
2022/11/18 09:30:04;;;;;;;;;;;;;;;;;;5011236;28;4947;-60
2022/11/18 09:32:31;;;;;;;;;;;;;;;;;;4994981;28;5017;-67
2022/11/18 09:34:56;;;;;;;;;;;;;;;;;;5022452;28;5547;-54
2022/11/18 09:37:21;;;;;;;;;;;;;;;;;;5017135;28;1993;-63
2022/11/18 09:39:46;;;;;;;;;;;;;;;;;;5018455;28;5086;-64
2022/11/18 09:42:21;;;;;;;;;;;;;;;;;;5021448;28;5065;-63
2022/11/18 09:44:59;;;;;;;;;;;;;;;;;;5039308;28;4493;-65
2022/11/18 09:47:27;;;;;;;;;;;;;;;;;;5041920;28;5025;-60
2022/11/18 09:49:53;;;;;;;;;;;;;;;;;;5022658;28;2007;-59
2022/11/18 09:52:20;;;;;;;;;;;;;;;;;;5019308;28;4464;-59
2022/11/18 09:54:45;;;;;;;;;;;;;;;;;;5016230;28;4647;-57
2022/11/18 09:57:20;;;;;;;;;;;;;;;;;;5022689;28;4674;-60
2022/11/18 09:59:46;;;;;;;;;;;;;;;;;;5041660;28;4655;-58
2022/11/18 10:02:20;;;;;;;;;;;;;;;;;;5030241;28;4483;-60
2022/11/18 10:04:45;;;;;;;;;;;;;;;;;;5028642;28;4545;-59
2022/11/18 10:07:19;;;;;;;;;;;;;;;;;;5037915;28;4464;-63
2022/11/18 10:09:45;;;;;;;;;;;;;;;;;;5020549;28;5753;-64
2022/11/18 10:12:29;;;;;;;;;;;;;;;;;;5027516;28;4517;-65
2022/11/18 10:15:00;;;;;;;;;;;;;;;;;;5038440;28;5041;-63
2022/11/18 10:17:25;;;;;;;;;;;;;;;;;;5015064;28;5151;-62
2022/11/18 10:19:52;;;;;;;;;;;;;;;;;;5020815;28;2024;-67
2022/11/18 10:22:18;;;;;;;;;;;;;;;;;;5007588;28;4649;-61
2022/11/18 10:24:50;;;;;;;;;;;;;;;;;;5011041;28;5191;-68
2022/11/18 10:27:15;;;;;;;;;;;;;;;;;;5024177;28;5446;-68
2022/11/18 10:29:41;;;;;;;;;;;;;;;;;;5026654;28;5040;-61
2022/11/18 10:32:07;;;;;;;;;;;;;;;;;;5004484;28;5149;-68
2022/11/18 10:34:33;;;;;;;;;;;;;;;;;;5025336;28;2598;-62
2022/11/18 10:36:58;;;;;;;;;;;;;;;;;;5030344;28;5138;-66
2022/11/18 10:39:23;;;;;;;;;;;;;;;;;;5022931;28;5339;-66
2022/11/18 10:41:50;;;;;;;;;;;;;;;;;;5020335;28;5129;-58
2022/11/18 10:44:26;;;;;;;;;;;;;;;;;;5032090;28;5149;-59
2022/11/18 10:46:51;;;;;;;;;;;;;;;;;;5017824;28;2551;-58
2022/11/18 10:49:17;;;;;;;;;;;;;;;;;;5027578;28;4888;-59
2022/11/18 10:51:43;;;;;;;;;;;;;;;;;;5014367;28;5095;-64
2022/11/18 10:54:18;;;;;;;;;;;;;;;;;;5022251;28;4712;-61
2022/11/18 10:56:51;;;;;;;;;;;;;;;;;;5016042;28;5158;-55
2022/11/18 10:59:39;;;;;;;;;;;;;;;;;;5017411;28;4525;-56
2022/11/18 11:02:18;;;;;;;;;;;;;;;;;;5014822;28;5120;-57
2022/11/18 11:04:44;;;;;;;;;;;;;;;;;;5038843;28;4492;-61
2022/11/18 11:07:24;;;;;;;;;;;;;;;;;;5023274;28;4652;-61
2022/11/18 11:10:08;;;;;;;;;;;;;;;;;;5016231;28;5399;-63
2022/11/18 11:12:33;;;;;;;;;;;;;;;;;;5023004;28;5176;-63
2022/11/18 11:15:01;;;;;;;;;;;;;;;;;;5015878;28;4934;-58
2022/11/18 11:17:30;;;;;;;;;;;;;;;;;;5032287;28;5441;-62
2022/11/18 11:20:14;;;;;;;;;;;;;;;;;;5016255;28;2500;-61
2022/11/18 11:22:41;;;;;;;;;;;;;;;;;;5034176;28;5090;-61
2022/11/18 11:25:16;;;;;;;;;;;;;;;;;;5015154;28;4602;-60
2022/11/18 11:27:42;;;;;;;;;;;;;;;;;;5018543;28;5154;-59
2022/11/18 11:30:10;;;;;;;;;;;;;;;;;;5018265;28;4638;-59
2022/11/18 11:32:48;;;;;;;;;;;;;;;;;;5021113;28;6053;-62
2022/11/18 11:35:27;;;;;;;;;;;;;;;;;;5015290;28;5179;-58
2022/11/18 11:37:54;;;;;;;;;;;;;;;;;;5034173;28;2285;-57
2022/11/18 11:40:32;;;;;;;;;;;;;;;;;;5034279;28;5037;-58
2022/11/18 11:43:20;;;;;;;;;;;;;;;;;;5017678;28;5103;-59
2022/11/18 11:46:04;;;;;;;;;;;;;;;;;;5028930;28;5322;-58
2022/11/18 11:48:33;;;;;;;;;;;;;;;;;;5021510;28;5182;-58
2022/11/18 11:51:07;;;;;;;;;;;;;;;;;;5041032;28;5172;-58
2022/11/18 11:53:45;;;;;;;;;;;;;;;;;;5033264;28;5039;-59
2022/11/18 11:56:18;;;;;;;;;;;;;;;;;;5017998;28;4490;-57
2022/11/18 11:58:50;;;;;;;;;;;;;;;;;;5034505;28;2429;-57
2022/11/18 12:01:15;;;;;;;;;;;;;;;;;;5018604;28;5015;-58
2022/11/18 12:03:43;;;;;;;;;;;;;;;;;;5018800;28;4785;-58
2022/11/18 12:06:09;;;;;;;;;;;;;;;;;;5023630;28;4725;-55
2022/11/18 12:08:34;;;;;;;;;;;;;;;;;;5022211;28;5072;-67
2022/11/18 12:11:03;;;;;;;;;;;;;;;;;;5032194;28;5105;-57
2022/11/18 12:13:52;;;;;;;;;;;;;;;;;;5019387;28;2444;-57
2022/11/18 12:16:20;;;;;;;;;;;;;;;;;;5012812;28;5260;-57
2022/11/18 12:18:58;;;;;;;;;;;;;;;;;;5014194;28;4935;-56
2022/11/18 12:21:46;;;;;;;;;;;;;;;;;;5025652;28;5097;-56
2022/11/18 12:24:24;;;;;;;;;;;;;;;;;;5010932;28;5085;-56
2022/11/18 12:26:50;;;;;;;;;;;;;;;;;;5020145;28;5069;-57
2022/11/18 12:29:18;;;;;;;;;;;;;;;;;;5020621;28;5332;-55
2022/11/18 12:31:44;;;;;;;;;;;;;;;;;;5024462;28;1499;-57
2022/11/18 12:34:18;;;;;;;;;;;;;;;;;;5039589;28;5329;-55
2022/11/18 12:36:43;;;;;;;;;;;;;;;;;;5024777;28;4635;-55
2022/11/18 12:39:24;;;;;;;;;;;;;;;;;;5037653;28;5354;-55
2022/11/18 12:44:33;;;;;;;;;;;;;;;;;;5022584;28;5132;-55
2022/11/18 12:46:59;;;;;;;;;;;;;;;;;;5021647;28;5046;-56
2022/11/18 12:49:24;;;;;;;;;;;;;;;;;;5003067;28;2118;-56
2022/11/18 12:51:50;;;;;;;;;;;;;;;;;;5012753;28;5010;-53
2022/11/18 12:54:25;;;;;;;;;;;;;;;;;;5009773;28;5842;-58
2022/11/18 12:56:50;;;;;;;;;;;;;;;;;;4993874;28;5076;-59
2022/11/18 12:59:16;;;;;;;;;;;;;;;;;;4998125;28;5042;-59
2022/11/18 13:01:41;;;;;;;;;;;;;;;;;;4991405;28;2336;-61
2022/11/18 13:04:06;;;;;;;;;;;;;;;;;;5004665;28;5111;-61
2022/11/18 13:06:32;;;;;;;;;;;;;;;;;;5001068;28;4948;-62
2022/11/18 13:09:01;;;;;;;;;;;;;;;;;;5013061;28;4940;-61
2022/11/18 13:11:45;;;;;;;;;;;;;;;;;;5003445;28;5167;-56
2022/11/18 13:19:55;;;;;;;;;;;;;;;;;;4985084;28;2160;-59
2022/11/18 13:25:04;;;;;;;;;;;;;;;;;;5000063;28;5607;-55
2022/11/18 13:27:38;;;;;;;;;;;;;;;;;;5022276;28;5033;-56
2022/11/18 13:30:11;;;;;;;;;;;;;;;;;;5025592;28;4516;-58
2022/11/18 13:32:36;;;;;;;;;;;;;;;;;;5047271;28;5349;-57
2022/11/18 13:35:17;;;;;;;;;;;;;;;;;;5040624;28;4772;-57
2022/11/18 13:37:49;;;;;;;;;;;;;;;;;;5017622;28;2328;-61
2022/11/18 13:40:19;;;;;;;;;;;;;;;;;;5025046;28;5048;-55
2022/11/18 13:42:44;;;;;;;;;;;;;;;;;;5025875;28;4508;-56
2022/11/18 13:45:11;;;;;;;;;;;;;;;;;;5015263;28;4733;-56
2022/11/18 13:47:46;;;;;;;;;;;;;;;;;;5017135;28;5047;-55
2022/11/18 13:50:14;;;;;;;;;;;;;;;;;;5026074;28;4704;-56
2022/11/18 13:52:43;;;;;;;;;;;;;;;;;;5031511;28;1016;-55
2022/11/18 13:55:17;;;;;;;;;;;;;;;;;;5040871;28;4886;-55
2022/11/18 13:57:45;;;;;;;;;;;;;;;;;;5004511;28;5181;-56
2022/11/18 14:00:14;;;;;;;;;;;;;;;;;;5018917;28;5101;-54
2022/11/18 14:02:45;;;;;;;;;;;;;;;;;;5013814;28;5108;-61
2022/11/18 14:05:15;;;;;;;;;;;;;;;;;;5027124;28;4946;-61
2022/11/18 14:07:40;;;;;;;;;;;;;;;;;;5012918;28;2160;-60
2022/11/18 14:10:06;;;;;;;;;;;;;;;;;;5026790;28;4558;-59
2022/11/18 14:12:32;;;;;;;;;;;;;;;;;;5032287;28;4902;-61
2022/11/18 14:15:16;;;;;;;;;;;;;;;;;;5026241;28;5204;-60
2022/11/18 14:17:48;;;;;;;;;;;;;;;;;;5014238;28;5220;-58
2022/11/18 14:20:14;;;;;;;;;;;;;;;;;;5023808;28;5092;-60
2022/11/18 14:22:40;;;;;;;;;;;;;;;;;;5055655;28;1032;-59
2022/11/18 14:25:05;;;;;;;;;;;;;;;;;;5013131;28;4669;-58
2022/11/18 14:27:34;;;;;;;;;;;;;;;;;;5039087;28;5157;-66
2022/11/18 14:29:59;;;;;;;;;;;;;;;;;;5030688;28;5003;-63
2022/11/18 14:32:25;;;;;;;;;;;;;;;;;;5030336;28;4728;-66
2022/11/18 14:34:59;;;;;;;;;;;;;;;;;;5030918;28;1123;-66
2022/11/18 14:37:25;;;;;;;;;;;;;;;;;;5029122;28;4739;-68
2022/11/18 14:39:54;;;;;;;;;;;;;;;;;;5025637;28;4514;-69
2022/11/18 14:42:19;;;;;;;;;;;;;;;;;;5029413;28;5136;-63
2022/11/18 14:44:44;;;;;;;;;;;;;;;;;;5045714;28;4428;-65
2022/11/18 14:47:13;;;;;;;;;;;;;;;;;;5029976;28;5200;-68
2022/11/18 14:49:39;;;;;;;;;;;;;;;;;;5022513;28;2418;-67
2022/11/18 14:52:04;;;;;;;;;;;;;;;;;;5028806;28;4767;-60
2022/11/18 14:54:29;;;;;;;;;;;;;;;;;;5027521;28;4822;-64
2022/11/18 14:56:56;;;;;;;;;;;;;;;;;;5010118;28;4530;-61
2022/11/18 14:59:21;;;;;;;;;;;;;;;;;;5036893;28;4714;-65
2022/11/18 15:01:46;;;;;;;;;;;;;;;;;;5028168;28;2106;-65
2022/11/18 15:04:12;;;;;;;;;;;;;;;;;;5022541;28;4479;-65
2022/11/18 15:06:38;;;;;;;;;;;;;;;;;;5025252;28;4559;-62
2022/11/18 15:09:03;;;;;;;;;;;;;;;;;;5020396;28;5155;-62
2022/11/18 15:11:29;;;;;;;;;;;;;;;;;;5011456;28;5091;-64
2022/11/18 15:13:54;;;;;;;;;;;;;;;;;;5018952;28;2534;-65
2022/11/18 15:16:20;;;;;;;;;;;;;;;;;;5014510;28;4941;-64
2022/11/18 15:18:46;;;;;;;;;;;;;;;;;;5015395;28;5142;-63
2022/11/18 15:21:12;;;;;;;;;;;;;;;;;;5004759;28;5364;-64
2022/11/18 15:23:37;;;;;;;;;;;;;;;;;;5007913;28;4508;-65
2022/11/18 15:26:04;;;;;;;;;;;;;;;;;;5019537;28;4995;-65
2022/11/18 15:28:30;;;;;;;;;;;;;;;;;;5029248;28;2413;-65
2022/11/18 15:30:55;;;;;;;;;;;;;;;;;;5018753;28;5107;-61
2022/11/18 15:33:20;;;;;;;;;;;;;;;;;;5024513;28;4446;-60
2022/11/18 15:35:46;;;;;;;;;;;;;;;;;;5019409;28;4686;-66
2022/11/18 15:38:11;;;;;;;;;;;;;;;;;;5019183;28;4691;-64
2022/11/18 15:40:37;;;;;;;;;;;;;;;;;;5014109;28;2267;-63
2022/11/18 15:43:03;;;;;;;;;;;;;;;;;;5020541;28;4973;-65
2022/11/18 15:45:28;;;;;;;;;;;;;;;;;;5018504;28;4702;-65
2022/11/18 15:47:53;;;;;;;;;;;;;;;;;;5023343;28;5091;-66
2022/11/18 15:50:18;;;;;;;;;;;;;;;;;;5020600;28;5112;-66
2022/11/18 15:52:44;;;;;;;;;;;;;;;;;;5013765;28;2329;-65
2022/11/18 15:55:09;;;;;;;;;;;;;;;;;;5019219;28;4549;-66
2022/11/18 15:57:34;;;;;;;;;;;;;;;;;;5017101;28;5015;-66
2022/11/18 15:59:59;;;;;;;;;;;;;;;;;;5013767;28;4906;-66
2022/11/18 16:02:24;;;;;;;;;;;;;;;;;;5016894;28;5067;-66
2022/11/18 16:04:50;;;;;;;;;;;;;;;;;;5014900;28;4481;-68
2022/11/18 16:07:15;;;;;;;;;;;;;;;;;;5017995;28;5041;-65
2022/11/18 16:17:52;;;;;;;;;;;;;;;;;;5007631;28;4477;-65
2022/11/18 16:20:17;;;;;;;;;;;;;;;;;;4998085;28;4624;-66
2022/11/18 16:22:42;;;;;;;;;;;;;;;;;;4995820;28;1886;-67
2022/11/18 16:25:07;;;;;;;;;;;;;;;;;;5000091;28;4470;-68
2022/11/18 16:27:34;;;;;;;;;;;;;;;;;;5004108;28;4894;-66
2022/11/18 16:29:59;;;;;;;;;;;;;;;;;;4992060;28;4920;-62
2022/11/18 16:32:24;;;;;;;;;;;;;;;;;;5000173;28;5115;-65
2022/11/18 16:34:49;;;;;;;;;;;;;;;;;;5007596;28;2096;-67
2022/11/18 16:37:14;;;;;;;;;;;;;;;;;;5026431;28;4657;-65
2022/11/18 16:39:40;;;;;;;;;;;;;;;;;;5024453;28;5214;-63
2022/11/18 16:42:05;;;;;;;;;;;;;;;;;;5026759;28;4923;-64
2022/11/18 16:44:30;;;;;;;;;;;;;;;;;;5025646;28;5264;-66
2022/11/18 16:46:56;;;;;;;;;;;;;;;;;;5020404;28;2061;-66
2022/11/18 16:49:22;;;;;;;;;;;;;;;;;;5034364;28;4864;-66
2022/11/18 16:51:48;;;;;;;;;;;;;;;;;;5016288;28;5187;-65
2022/11/18 16:54:17;;;;;;;;;;;;;;;;;;5012199;28;5358;-61
2022/11/18 16:56:43;;;;;;;;;;;;;;;;;;5037865;28;5224;-63
2022/11/18 16:59:24;;;;;;;;;;;;;;;;;;5023960;28;4756;-61
2022/11/18 17:01:49;;;;;;;;;;;;;;;;;;5032303;28;2328;-62
2022/11/18 17:04:15;;;;;;;;;;;;;;;;;;5022666;28;4650;-63
2022/11/18 17:06:40;;;;;;;;;;;;;;;;;;5022931;28;4523;-63
2022/11/18 17:09:06;;;;;;;;;;;;;;;;;;5016849;28;5116;-66
2022/11/18 17:11:31;;;;;;;;;;;;;;;;;;5021805;28;5158;-68
2022/11/18 17:13:56;;;;;;;;;;;;;;;;;;5015416;28;4707;-64
2022/11/18 17:16:22;;;;;;;;;;;;;;;;;;5016666;28;2001;-63
2022/11/18 17:18:47;;;;;;;;;;;;;;;;;;5022037;28;5003;-66
2022/11/18 17:21:20;;;;;;;;;;;;;;;;;;5011509;28;4928;-64
2022/11/18 17:23:45;;;;;;;;;;;;;;;;;;5002699;28;5008;-60
2022/11/18 17:26:11;;;;;;;;;;;;;;;;;;5022634;28;5176;-63
2022/11/18 17:28:36;;;;;;;;;;;;;;;;;;5029209;28;2318;-60
2022/11/18 17:31:09;;;;;;;;;;;;;;;;;;5022735;28;5182;-63
2022/11/18 17:33:34;;;;;;;;;;;;;;;;;;4999095;28;5450;-64
2022/11/18 17:36:00;;;;;;;;;;;;;;;;;;5007411;28;5264;-64